sensor_id;sensor_type;location;lat;lon;timestamp;P1;durP1;ratioP1;P2;durP2;ratioP2
751;SDS011;360;48.764;9.164;2022-07-23T00:00:07;3.10;;;2.80;;
751;SDS011;360;48.764;9.164;2022-07-23T00:02:34;3.43;;;3.10;;
751;SDS011;360;48.764;9.164;2022-07-23T00:05:01;4.90;;;2.73;;
751;SDS011;360;48.764;9.164;2022-07-23T00:07:30;2.70;;;2.50;;
751;SDS011;360;48.764;9.164;2022-07-23T00:09:57;3.50;;;3.20;;
751;SDS011;360;48.764;9.164;2022-07-23T00:12:24;3.80;;;2.70;;
751;SDS011;360;48.764;9.164;2022-07-23T00:14:52;3.23;;;2.80;;
751;SDS011;360;48.764;9.164;2022-07-23T00:17:19;3.20;;;2.50;;
751;SDS011;360;48.764;9.164;2022-07-23T00:19:46;3.00;;;2.70;;
751;SDS011;360;48.764;9.164;2022-07-23T00:22:13;3.17;;;2.87;;
751;SDS011;360;48.764;9.164;2022-07-23T00:24:42;3.20;;;2.87;;
751;SDS011;360;48.764;9.164;2022-07-23T00:27:09;2.80;;;2.60;;
751;SDS011;360;48.764;9.164;2022-07-23T00:29:36;3.23;;;2.63;;
751;SDS011;360;48.764;9.164;2022-07-23T00:32:03;3.97;;;3.07;;
751;SDS011;360;48.764;9.164;2022-07-23T00:34:31;3.23;;;2.80;;
751;SDS011;360;48.764;9.164;2022-07-23T00:36:58;3.30;;;2.93;;
751;SDS011;360;48.764;9.164;2022-07-23T00:39:25;2.67;;;2.30;;
751;SDS011;360;48.764;9.164;2022-07-23T00:41:53;3.20;;;2.70;;
751;SDS011;360;48.764;9.164;2022-07-23T00:44:21;2.73;;;2.53;;
751;SDS011;360;48.764;9.164;2022-07-23T00:46:50;2.80;;;2.53;;
751;SDS011;360;48.764;9.164;2022-07-23T00:49:19;3.40;;;2.60;;
751;SDS011;360;48.764;9.164;2022-07-23T00:51:47;4.30;;;2.93;;
751;SDS011;360;48.764;9.164;2022-07-23T00:54:14;3.20;;;2.90;;
751;SDS011;360;48.764;9.164;2022-07-23T00:56:41;2.80;;;2.60;;
751;SDS011;360;48.764;9.164;2022-07-23T00:59:11;2.70;;;2.47;;
751;SDS011;360;48.764;9.164;2022-07-23T01:01:38;3.00;;;2.70;;
751;SDS011;360;48.764;9.164;2022-07-23T01:04:05;2.97;;;2.67;;
751;SDS011;360;48.764;9.164;2022-07-23T01:06:34;3.30;;;2.80;;
751;SDS011;360;48.764;9.164;2022-07-23T01:09:02;3.27;;;2.97;;
751;SDS011;360;48.764;9.164;2022-07-23T01:11:31;2.93;;;2.63;;
751;SDS011;360;48.764;9.164;2022-07-23T01:13:59;2.73;;;2.37;;
751;SDS011;360;48.764;9.164;2022-07-23T01:16:34;3.30;;;2.57;;
751;SDS011;360;48.764;9.164;2022-07-23T01:19:01;2.50;;;2.30;;
751;SDS011;360;48.764;9.164;2022-07-23T01:21:29;2.90;;;2.60;;
751;SDS011;360;48.764;9.164;2022-07-23T01:23:58;3.13;;;2.70;;
751;SDS011;360;48.764;9.164;2022-07-23T01:26:25;3.10;;;2.80;;
751;SDS011;360;48.764;9.164;2022-07-23T01:28:52;2.50;;;2.27;;
751;SDS011;360;48.764;9.164;2022-07-23T01:31:19;3.10;;;2.80;;
751;SDS011;360;48.764;9.164;2022-07-23T01:33:46;2.90;;;2.70;;
751;SDS011;360;48.764;9.164;2022-07-23T01:36:12;3.47;;;2.80;;
751;SDS011;360;48.764;9.164;2022-07-23T01:38:39;2.60;;;2.40;;
751;SDS011;360;48.764;9.164;2022-07-23T01:41:08;3.20;;;2.90;;
751;SDS011;360;48.764;9.164;2022-07-23T01:43:34;3.23;;;2.80;;
751;SDS011;360;48.764;9.164;2022-07-23T01:46:01;2.70;;;2.50;;
751;SDS011;360;48.764;9.164;2022-07-23T01:48:28;2.70;;;2.50;;
751;SDS011;360;48.764;9.164;2022-07-23T01:50:55;3.10;;;2.43;;
751;SDS011;360;48.764;9.164;2022-07-23T01:53:22;2.90;;;2.67;;
751;SDS011;360;48.764;9.164;2022-07-23T01:55:49;3.73;;;3.00;;
751;SDS011;360;48.764;9.164;2022-07-23T01:58:17;3.17;;;2.60;;
751;SDS011;360;48.764;9.164;2022-07-23T02:00:44;3.03;;;2.70;;
751;SDS011;360;48.764;9.164;2022-07-23T02:03:11;2.97;;;2.73;;
751;SDS011;360;48.764;9.164;2022-07-23T02:05:38;2.43;;;2.07;;
751;SDS011;360;48.764;9.164;2022-07-23T02:08:07;3.83;;;2.50;;
751;SDS011;360;48.764;9.164;2022-07-23T02:10:34;3.30;;;2.20;;
751;SDS011;360;48.764;9.164;2022-07-23T02:13:01;2.57;;;2.37;;
751;SDS011;360;48.764;9.164;2022-07-23T02:15:30;2.47;;;2.27;;
751;SDS011;360;48.764;9.164;2022-07-23T02:17:58;3.07;;;2.83;;
751;SDS011;360;48.764;9.164;2022-07-23T02:20:25;2.60;;;2.40;;
751;SDS011;360;48.764;9.164;2022-07-23T02:22:52;3.50;;;2.77;;
751;SDS011;360;48.764;9.164;2022-07-23T02:25:19;3.87;;;3.00;;
751;SDS011;360;48.764;9.164;2022-07-23T02:27:46;2.80;;;2.50;;
751;SDS011;360;48.764;9.164;2022-07-23T02:30:13;3.50;;;2.97;;
751;SDS011;360;48.764;9.164;2022-07-23T02:32:42;3.03;;;2.83;;
751;SDS011;360;48.764;9.164;2022-07-23T02:35:09;4.17;;;2.40;;
751;SDS011;360;48.764;9.164;2022-07-23T02:37:36;3.30;;;3.00;;
751;SDS011;360;48.764;9.164;2022-07-23T02:40:04;4.30;;;3.10;;
751;SDS011;360;48.764;9.164;2022-07-23T02:42:31;2.87;;;2.57;;
751;SDS011;360;48.764;9.164;2022-07-23T02:44:58;4.67;;;3.57;;
751;SDS011;360;48.764;9.164;2022-07-23T02:47:25;3.07;;;2.53;;
751;SDS011;360;48.764;9.164;2022-07-23T02:49:54;2.90;;;2.50;;
751;SDS011;360;48.764;9.164;2022-07-23T02:52:21;2.90;;;2.60;;
751;SDS011;360;48.764;9.164;2022-07-23T02:54:48;3.43;;;3.13;;
751;SDS011;360;48.764;9.164;2022-07-23T02:57:15;3.43;;;2.67;;
751;SDS011;360;48.764;9.164;2022-07-23T02:59:42;3.60;;;3.30;;
751;SDS011;360;48.764;9.164;2022-07-23T03:02:09;3.23;;;2.67;;
751;SDS011;360;48.764;9.164;2022-07-23T03:04:37;2.80;;;2.60;;
751;SDS011;360;48.764;9.164;2022-07-23T03:07:05;4.37;;;2.47;;
751;SDS011;360;48.764;9.164;2022-07-23T03:09:32;5.47;;;2.70;;
751;SDS011;360;48.764;9.164;2022-07-23T03:11:59;3.83;;;2.60;;
751;SDS011;360;48.764;9.164;2022-07-23T03:14:26;3.13;;;2.73;;
751;SDS011;360;48.764;9.164;2022-07-23T03:16:54;3.13;;;2.67;;
751;SDS011;360;48.764;9.164;2022-07-23T03:19:21;2.87;;;2.60;;
751;SDS011;360;48.764;9.164;2022-07-23T03:21:48;3.00;;;2.47;;
751;SDS011;360;48.764;9.164;2022-07-23T03:24:16;3.00;;;2.63;;
751;SDS011;360;48.764;9.164;2022-07-23T03:26:44;2.97;;;2.40;;
751;SDS011;360;48.764;9.164;2022-07-23T03:29:11;4.03;;;2.77;;
751;SDS011;360;48.764;9.164;2022-07-23T03:31:38;3.80;;;2.80;;
751;SDS011;360;48.764;9.164;2022-07-23T03:34:05;3.20;;;2.67;;
751;SDS011;360;48.764;9.164;2022-07-23T03:36:32;3.13;;;2.83;;
751;SDS011;360;48.764;9.164;2022-07-23T03:38:59;3.50;;;2.87;;
751;SDS011;360;48.764;9.164;2022-07-23T03:41:28;3.23;;;2.93;;
751;SDS011;360;48.764;9.164;2022-07-23T03:43:55;3.03;;;2.73;;
751;SDS011;360;48.764;9.164;2022-07-23T03:46:22;3.50;;;3.20;;
751;SDS011;360;48.764;9.164;2022-07-23T03:48:49;3.73;;;2.83;;
751;SDS011;360;48.764;9.164;2022-07-23T03:51:17;2.77;;;2.47;;
751;SDS011;360;48.764;9.164;2022-07-23T03:53:44;2.73;;;2.43;;
751;SDS011;360;48.764;9.164;2022-07-23T03:56:11;3.63;;;2.93;;
751;SDS011;360;48.764;9.164;2022-07-23T03:58:40;3.90;;;3.00;;
751;SDS011;360;48.764;9.164;2022-07-23T04:01:07;2.83;;;2.40;;
751;SDS011;360;48.764;9.164;2022-07-23T04:03:34;4.03;;;2.93;;
751;SDS011;360;48.764;9.164;2022-07-23T04:06:01;3.17;;;2.63;;
751;SDS011;360;48.764;9.164;2022-07-23T04:08:28;3.07;;;2.87;;
751;SDS011;360;48.764;9.164;2022-07-23T04:10:55;3.20;;;2.90;;
751;SDS011;360;48.764;9.164;2022-07-23T04:13:23;3.27;;;2.97;;
751;SDS011;360;48.764;9.164;2022-07-23T04:15:51;3.77;;;2.90;;
751;SDS011;360;48.764;9.164;2022-07-23T04:18:18;3.57;;;3.00;;
751;SDS011;360;48.764;9.164;2022-07-23T04:20:47;4.10;;;2.60;;
751;SDS011;360;48.764;9.164;2022-07-23T04:23:14;2.80;;;2.47;;
751;SDS011;360;48.764;9.164;2022-07-23T04:25:41;3.33;;;3.03;;
751;SDS011;360;48.764;9.164;2022-07-23T04:28:09;3.23;;;2.90;;
751;SDS011;360;48.764;9.164;2022-07-23T04:30:36;3.97;;;3.37;;
751;SDS011;360;48.764;9.164;2022-07-23T04:33:04;3.33;;;3.03;;
751;SDS011;360;48.764;9.164;2022-07-23T04:35:31;5.40;;;3.43;;
751;SDS011;360;48.764;9.164;2022-07-23T04:37:59;4.60;;;3.60;;
751;SDS011;360;48.764;9.164;2022-07-23T04:40:27;4.30;;;3.70;;
751;SDS011;360;48.764;9.164;2022-07-23T04:42:55;4.73;;;3.30;;
751;SDS011;360;48.764;9.164;2022-07-23T04:45:22;2.77;;;2.47;;
751;SDS011;360;48.764;9.164;2022-07-23T04:47:50;3.30;;;2.93;;
751;SDS011;360;48.764;9.164;2022-07-23T04:50:18;3.97;;;2.93;;
751;SDS011;360;48.764;9.164;2022-07-23T04:52:47;4.93;;;3.60;;
751;SDS011;360;48.764;9.164;2022-07-23T04:55:14;3.33;;;3.03;;
751;SDS011;360;48.764;9.164;2022-07-23T04:57:42;3.30;;;2.97;;
751;SDS011;360;48.764;9.164;2022-07-23T05:00:09;4.30;;;3.23;;
751;SDS011;360;48.764;9.164;2022-07-23T05:02:36;4.13;;;3.03;;
751;SDS011;360;48.764;9.164;2022-07-23T05:05:04;3.50;;;2.90;;
751;SDS011;360;48.764;9.164;2022-07-23T05:07:32;3.90;;;3.03;;
751;SDS011;360;48.764;9.164;2022-07-23T05:09:59;4.83;;;2.87;;
751;SDS011;360;48.764;9.164;2022-07-23T05:12:27;3.03;;;2.73;;
751;SDS011;360;48.764;9.164;2022-07-23T05:14:54;3.50;;;3.20;;
751;SDS011;360;48.764;9.164;2022-07-23T05:17:21;3.90;;;3.00;;
751;SDS011;360;48.764;9.164;2022-07-23T05:19:48;3.73;;;3.43;;
751;SDS011;360;48.764;9.164;2022-07-23T05:22:15;3.53;;;2.77;;
751;SDS011;360;48.764;9.164;2022-07-23T05:24:44;3.47;;;3.17;;
751;SDS011;360;48.764;9.164;2022-07-23T05:27:11;2.83;;;2.53;;
751;SDS011;360;48.764;9.164;2022-07-23T05:29:38;3.07;;;2.80;;
751;SDS011;360;48.764;9.164;2022-07-23T05:32:05;3.40;;;3.00;;
751;SDS011;360;48.764;9.164;2022-07-23T05:34:33;3.27;;;2.97;;
751;SDS011;360;48.764;9.164;2022-07-23T05:37:00;3.27;;;2.97;;
751;SDS011;360;48.764;9.164;2022-07-23T05:39:27;5.67;;;3.40;;
751;SDS011;360;48.764;9.164;2022-07-23T05:41:55;3.07;;;2.73;;
751;SDS011;360;48.764;9.164;2022-07-23T05:44:22;3.00;;;2.70;;
751;SDS011;360;48.764;9.164;2022-07-23T05:46:50;2.80;;;2.60;;
751;SDS011;360;48.764;9.164;2022-07-23T05:49:17;3.40;;;3.10;;
751;SDS011;360;48.764;9.164;2022-07-23T05:51:44;5.03;;;3.80;;
751;SDS011;360;48.764;9.164;2022-07-23T05:54:11;4.20;;;3.27;;
751;SDS011;360;48.764;9.164;2022-07-23T05:56:38;5.47;;;3.70;;
751;SDS011;360;48.764;9.164;2022-07-23T05:59:07;3.63;;;3.07;;
751;SDS011;360;48.764;9.164;2022-07-23T06:01:34;3.50;;;2.97;;
751;SDS011;360;48.764;9.164;2022-07-23T06:04:01;3.63;;;3.23;;
751;SDS011;360;48.764;9.164;2022-07-23T06:06:28;3.80;;;3.20;;
751;SDS011;360;48.764;9.164;2022-07-23T06:08:55;3.47;;;2.70;;
751;SDS011;360;48.764;9.164;2022-07-23T06:11:22;4.70;;;3.53;;
751;SDS011;360;48.764;9.164;2022-07-23T06:13:50;4.10;;;3.20;;
751;SDS011;360;48.764;9.164;2022-07-23T06:16:18;3.10;;;2.83;;
751;SDS011;360;48.764;9.164;2022-07-23T06:18:45;4.07;;;3.40;;
751;SDS011;360;48.764;9.164;2022-07-23T06:21:12;3.70;;;3.40;;
751;SDS011;360;48.764;9.164;2022-07-23T06:23:40;3.50;;;3.20;;
751;SDS011;360;48.764;9.164;2022-07-23T06:26:07;5.00;;;3.43;;
751;SDS011;360;48.764;9.164;2022-07-23T06:28:34;3.00;;;2.70;;
751;SDS011;360;48.764;9.164;2022-07-23T06:31:01;4.10;;;3.70;;
751;SDS011;360;48.764;9.164;2022-07-23T06:33:30;4.17;;;3.20;;
751;SDS011;360;48.764;9.164;2022-07-23T06:35:57;3.23;;;2.70;;
751;SDS011;360;48.764;9.164;2022-07-23T06:38:24;3.60;;;3.20;;
751;SDS011;360;48.764;9.164;2022-07-23T06:40:51;3.73;;;3.40;;
751;SDS011;360;48.764;9.164;2022-07-23T06:43:18;4.40;;;4.00;;
751;SDS011;360;48.764;9.164;2022-07-23T06:45:46;3.67;;;3.20;;
751;SDS011;360;48.764;9.164;2022-07-23T06:48:13;3.43;;;3.13;;
751;SDS011;360;48.764;9.164;2022-07-23T06:50:41;3.30;;;2.90;;
751;SDS011;360;48.764;9.164;2022-07-23T06:53:08;3.90;;;3.50;;
751;SDS011;360;48.764;9.164;2022-07-23T06:55:36;3.50;;;3.20;;
751;SDS011;360;48.764;9.164;2022-07-23T06:58:03;3.50;;;3.10;;
751;SDS011;360;48.764;9.164;2022-07-23T07:00:30;3.57;;;3.10;;
751;SDS011;360;48.764;9.164;2022-07-23T07:02:58;3.90;;;3.60;;
751;SDS011;360;48.764;9.164;2022-07-23T07:05:25;3.90;;;3.60;;
751;SDS011;360;48.764;9.164;2022-07-23T07:07:53;3.33;;;2.90;;
751;SDS011;360;48.764;9.164;2022-07-23T07:10:21;3.80;;;3.17;;
751;SDS011;360;48.764;9.164;2022-07-23T07:12:48;3.93;;;3.60;;
751;SDS011;360;48.764;9.164;2022-07-23T07:15:15;3.80;;;3.50;;
751;SDS011;360;48.764;9.164;2022-07-23T07:17:42;4.00;;;3.53;;
751;SDS011;360;48.764;9.164;2022-07-23T07:20:10;3.50;;;3.17;;
751;SDS011;360;48.764;9.164;2022-07-23T07:22:37;3.43;;;3.13;;
751;SDS011;360;48.764;9.164;2022-07-23T07:25:06;3.93;;;3.57;;
751;SDS011;360;48.764;9.164;2022-07-23T07:27:33;3.37;;;2.97;;
751;SDS011;360;48.764;9.164;2022-07-23T07:30:01;4.30;;;3.80;;
751;SDS011;360;48.764;9.164;2022-07-23T07:32:28;3.37;;;3.07;;
751;SDS011;360;48.764;9.164;2022-07-23T07:34:57;3.73;;;3.43;;
751;SDS011;360;48.764;9.164;2022-07-23T07:37:24;3.77;;;3.40;;
751;SDS011;360;48.764;9.164;2022-07-23T07:39:51;4.07;;;3.50;;
751;SDS011;360;48.764;9.164;2022-07-23T07:42:20;3.20;;;2.90;;
751;SDS011;360;48.764;9.164;2022-07-23T07:44:47;5.70;;;3.60;;
751;SDS011;360;48.764;9.164;2022-07-23T07:47:14;3.67;;;3.30;;
751;SDS011;360;48.764;9.164;2022-07-23T07:49:41;4.47;;;3.50;;
751;SDS011;360;48.764;9.164;2022-07-23T07:52:08;4.30;;;2.90;;
751;SDS011;360;48.764;9.164;2022-07-23T07:54:36;3.63;;;3.30;;
751;SDS011;360;48.764;9.164;2022-07-23T07:57:03;4.30;;;3.67;;
751;SDS011;360;48.764;9.164;2022-07-23T07:59:31;4.33;;;3.40;;
751;SDS011;360;48.764;9.164;2022-07-23T08:01:59;5.00;;;3.70;;
751;SDS011;360;48.764;9.164;2022-07-23T08:04:26;3.90;;;3.60;;
751;SDS011;360;48.764;9.164;2022-07-23T08:06:53;3.80;;;3.13;;
751;SDS011;360;48.764;9.164;2022-07-23T08:09:20;3.37;;;3.07;;
751;SDS011;360;48.764;9.164;2022-07-23T08:11:47;4.10;;;3.33;;
751;SDS011;360;48.764;9.164;2022-07-23T08:14:16;3.77;;;3.40;;
751;SDS011;360;48.764;9.164;2022-07-23T08:16:45;3.83;;;3.50;;
751;SDS011;360;48.764;9.164;2022-07-23T08:19:12;3.70;;;3.37;;
751;SDS011;360;48.764;9.164;2022-07-23T08:21:39;3.50;;;3.20;;
751;SDS011;360;48.764;9.164;2022-07-23T08:24:06;3.13;;;2.90;;
751;SDS011;360;48.764;9.164;2022-07-23T08:26:34;3.60;;;3.30;;
751;SDS011;360;48.764;9.164;2022-07-23T08:29:01;3.60;;;3.30;;
751;SDS011;360;48.764;9.164;2022-07-23T08:31:28;4.00;;;3.23;;
751;SDS011;360;48.764;9.164;2022-07-23T08:33:59;3.53;;;3.23;;
751;SDS011;360;48.764;9.164;2022-07-23T08:36:27;3.47;;;3.17;;
751;SDS011;360;48.764;9.164;2022-07-23T08:38:57;5.47;;;4.10;;
751;SDS011;360;48.764;9.164;2022-07-23T08:41:24;3.80;;;3.50;;
751;SDS011;360;48.764;9.164;2022-07-23T08:43:51;3.57;;;3.27;;
751;SDS011;360;48.764;9.164;2022-07-23T08:46:19;3.30;;;3.00;;
751;SDS011;360;48.764;9.164;2022-07-23T08:48:47;4.93;;;3.10;;
751;SDS011;360;48.764;9.164;2022-07-23T08:51:17;3.33;;;3.03;;
751;SDS011;360;48.764;9.164;2022-07-23T08:53:44;3.97;;;3.67;;
751;SDS011;360;48.764;9.164;2022-07-23T08:56:11;2.80;;;2.60;;
751;SDS011;360;48.764;9.164;2022-07-23T08:58:38;4.20;;;3.27;;
751;SDS011;360;48.764;9.164;2022-07-23T09:01:05;4.77;;;3.97;;
751;SDS011;360;48.764;9.164;2022-07-23T09:03:33;3.80;;;3.40;;
751;SDS011;360;48.764;9.164;2022-07-23T09:06:00;3.37;;;3.07;;
751;SDS011;360;48.764;9.164;2022-07-23T09:08:35;3.37;;;3.17;;
751;SDS011;360;48.764;9.164;2022-07-23T09:11:03;3.77;;;3.20;;
751;SDS011;360;48.764;9.164;2022-07-23T09:13:34;3.60;;;3.30;;
751;SDS011;360;48.764;9.164;2022-07-23T09:16:04;3.30;;;2.97;;
751;SDS011;360;48.764;9.164;2022-07-23T09:18:35;3.37;;;3.07;;
751;SDS011;360;48.764;9.164;2022-07-23T09:21:14;4.03;;;3.10;;
751;SDS011;360;48.764;9.164;2022-07-23T09:23:43;3.50;;;3.20;;
751;SDS011;360;48.764;9.164;2022-07-23T09:26:18;3.83;;;3.23;;
751;SDS011;360;48.764;9.164;2022-07-23T09:28:48;2.77;;;2.43;;
751;SDS011;360;48.764;9.164;2022-07-23T09:31:16;3.90;;;3.47;;
751;SDS011;360;48.764;9.164;2022-07-23T09:33:43;3.57;;;2.93;;
751;SDS011;360;48.764;9.164;2022-07-23T09:36:10;3.10;;;2.90;;
751;SDS011;360;48.764;9.164;2022-07-23T09:38:47;3.83;;;3.53;;
751;SDS011;360;48.764;9.164;2022-07-23T09:41:14;3.80;;;3.50;;
751;SDS011;360;48.764;9.164;2022-07-23T09:43:42;3.10;;;2.80;;
751;SDS011;360;48.764;9.164;2022-07-23T09:46:19;3.70;;;3.40;;
751;SDS011;360;48.764;9.164;2022-07-23T09:48:46;3.93;;;3.40;;
751;SDS011;360;48.764;9.164;2022-07-23T09:51:13;3.50;;;3.20;;
751;SDS011;360;48.764;9.164;2022-07-23T09:53:43;3.60;;;3.30;;
751;SDS011;360;48.764;9.164;2022-07-23T09:56:10;6.80;;;3.17;;
751;SDS011;360;48.764;9.164;2022-07-23T09:58:39;3.53;;;3.23;;
751;SDS011;360;48.764;9.164;2022-07-23T10:01:12;2.87;;;2.67;;
751;SDS011;360;48.764;9.164;2022-07-23T10:03:40;3.77;;;3.40;;
751;SDS011;360;48.764;9.164;2022-07-23T10:06:08;4.23;;;3.63;;
751;SDS011;360;48.764;9.164;2022-07-23T10:08:35;3.70;;;3.40;;
751;SDS011;360;48.764;9.164;2022-07-23T10:11:04;4.03;;;3.60;;
751;SDS011;360;48.764;9.164;2022-07-23T10:13:31;5.60;;;3.63;;
751;SDS011;360;48.764;9.164;2022-07-23T10:16:16;5.10;;;4.23;;
751;SDS011;360;48.764;9.164;2022-07-23T10:18:43;3.63;;;3.33;;
751;SDS011;360;48.764;9.164;2022-07-23T10:21:10;4.33;;;3.93;;
751;SDS011;360;48.764;9.164;2022-07-23T10:23:39;4.50;;;3.90;;
751;SDS011;360;48.764;9.164;2022-07-23T10:26:12;3.90;;;3.60;;
751;SDS011;360;48.764;9.164;2022-07-23T10:28:55;4.67;;;4.27;;
751;SDS011;360;48.764;9.164;2022-07-23T10:31:27;4.07;;;3.67;;
751;SDS011;360;48.764;9.164;2022-07-23T10:33:56;3.87;;;3.27;;
751;SDS011;360;48.764;9.164;2022-07-23T10:36:27;4.07;;;3.67;;
751;SDS011;360;48.764;9.164;2022-07-23T10:38:58;3.20;;;3.00;;
751;SDS011;360;48.764;9.164;2022-07-23T10:41:32;3.73;;;3.43;;
751;SDS011;360;48.764;9.164;2022-07-23T10:44:06;6.00;;;3.87;;
751;SDS011;360;48.764;9.164;2022-07-23T10:46:34;5.10;;;3.73;;
751;SDS011;360;48.764;9.164;2022-07-23T10:49:22;4.33;;;3.53;;
751;SDS011;360;48.764;9.164;2022-07-23T10:54:44;3.30;;;3.10;;
751;SDS011;360;48.764;9.164;2022-07-23T10:57:13;3.20;;;2.90;;
751;SDS011;360;48.764;9.164;2022-07-23T11:02:27;3.70;;;3.40;;
751;SDS011;360;48.764;9.164;2022-07-23T11:04:59;3.97;;;3.63;;
751;SDS011;360;48.764;9.164;2022-07-23T11:07:27;4.20;;;3.80;;
751;SDS011;360;48.764;9.164;2022-07-23T11:09:54;3.83;;;3.43;;
751;SDS011;360;48.764;9.164;2022-07-23T11:12:38;4.83;;;4.13;;
751;SDS011;360;48.764;9.164;2022-07-23T11:15:07;4.07;;;3.77;;
751;SDS011;360;48.764;9.164;2022-07-23T11:17:35;4.00;;;3.53;;
751;SDS011;360;48.764;9.164;2022-07-23T11:22:57;4.30;;;3.47;;
751;SDS011;360;48.764;9.164;2022-07-23T11:25:29;3.90;;;3.70;;
751;SDS011;360;48.764;9.164;2022-07-23T11:28:08;3.80;;;3.50;;
751;SDS011;360;48.764;9.164;2022-07-23T11:30:39;4.27;;;3.87;;
751;SDS011;360;48.764;9.164;2022-07-23T11:33:15;4.30;;;3.97;;
751;SDS011;360;48.764;9.164;2022-07-23T11:35:43;4.70;;;3.80;;
751;SDS011;360;48.764;9.164;2022-07-23T11:38:13;3.90;;;3.57;;
751;SDS011;360;48.764;9.164;2022-07-23T11:40:41;3.20;;;2.90;;
751;SDS011;360;48.764;9.164;2022-07-23T11:43:10;4.63;;;4.23;;
751;SDS011;360;48.764;9.164;2022-07-23T11:45:38;4.03;;;3.67;;
751;SDS011;360;48.764;9.164;2022-07-23T11:48:06;5.07;;;3.33;;
751;SDS011;360;48.764;9.164;2022-07-23T11:50:34;4.90;;;4.50;;
751;SDS011;360;48.764;9.164;2022-07-23T11:53:02;4.83;;;4.20;;
751;SDS011;360;48.764;9.164;2022-07-23T11:55:29;5.30;;;3.90;;
751;SDS011;360;48.764;9.164;2022-07-23T11:57:56;3.63;;;3.37;;
751;SDS011;360;48.764;9.164;2022-07-23T12:00:27;3.87;;;3.47;;
751;SDS011;360;48.764;9.164;2022-07-23T12:02:55;3.70;;;3.40;;
751;SDS011;360;48.764;9.164;2022-07-23T12:05:24;4.07;;;3.77;;
751;SDS011;360;48.764;9.164;2022-07-23T12:07:53;4.07;;;3.67;;
751;SDS011;360;48.764;9.164;2022-07-23T12:10:23;5.30;;;4.80;;
751;SDS011;360;48.764;9.164;2022-07-23T12:12:52;4.10;;;3.33;;
751;SDS011;360;48.764;9.164;2022-07-23T12:15:20;4.17;;;3.80;;
751;SDS011;360;48.764;9.164;2022-07-23T12:17:50;4.30;;;3.93;;
751;SDS011;360;48.764;9.164;2022-07-23T12:20:20;4.60;;;4.20;;
751;SDS011;360;48.764;9.164;2022-07-23T12:22:48;5.20;;;4.70;;
751;SDS011;360;48.764;9.164;2022-07-23T12:25:16;4.80;;;4.40;;
751;SDS011;360;48.764;9.164;2022-07-23T12:27:45;4.50;;;4.10;;
751;SDS011;360;48.764;9.164;2022-07-23T12:30:19;4.57;;;4.20;;
751;SDS011;360;48.764;9.164;2022-07-23T12:32:47;5.57;;;4.00;;
751;SDS011;360;48.764;9.164;2022-07-23T12:35:16;4.10;;;3.80;;
751;SDS011;360;48.764;9.164;2022-07-23T12:37:44;4.80;;;4.40;;
751;SDS011;360;48.764;9.164;2022-07-23T12:40:25;4.70;;;4.20;;
751;SDS011;360;48.764;9.164;2022-07-23T12:42:54;5.00;;;4.20;;
751;SDS011;360;48.764;9.164;2022-07-23T12:45:22;4.80;;;4.40;;
751;SDS011;360;48.764;9.164;2022-07-23T12:50:44;4.13;;;3.83;;
751;SDS011;360;48.764;9.164;2022-07-23T12:53:16;3.90;;;3.60;;
751;SDS011;360;48.764;9.164;2022-07-23T12:55:44;4.63;;;4.23;;
751;SDS011;360;48.764;9.164;2022-07-23T12:58:13;4.87;;;4.47;;
751;SDS011;360;48.764;9.164;2022-07-23T13:00:58;4.00;;;3.60;;
751;SDS011;360;48.764;9.164;2022-07-23T13:03:32;5.37;;;4.87;;
751;SDS011;360;48.764;9.164;2022-07-23T13:06:03;4.00;;;3.70;;
751;SDS011;360;48.764;9.164;2022-07-23T13:08:31;4.78;;;4.38;;
751;SDS011;360;48.764;9.164;2022-07-23T13:10:59;6.20;;;4.60;;
751;SDS011;360;48.764;9.164;2022-07-23T13:13:29;4.03;;;3.70;;
751;SDS011;360;48.764;9.164;2022-07-23T13:15:58;4.72;;;4.40;;
751;SDS011;360;48.764;9.164;2022-07-23T13:18:26;4.00;;;3.70;;
751;SDS011;360;48.764;9.164;2022-07-23T13:20:54;3.63;;;3.33;;
751;SDS011;360;48.764;9.164;2022-07-23T13:23:22;3.93;;;3.63;;
751;SDS011;360;48.764;9.164;2022-07-23T13:25:50;4.33;;;4.03;;
751;SDS011;360;48.764;9.164;2022-07-23T13:28:18;4.50;;;4.10;;
751;SDS011;360;48.764;9.164;2022-07-23T13:30:46;4.43;;;4.03;;
751;SDS011;360;48.764;9.164;2022-07-23T13:33:14;4.60;;;4.30;;
751;SDS011;360;48.764;9.164;2022-07-23T13:35:42;4.40;;;4.10;;
751;SDS011;360;48.764;9.164;2022-07-23T13:38:09;4.50;;;4.10;;
751;SDS011;360;48.764;9.164;2022-07-23T13:40:39;4.53;;;4.10;;
751;SDS011;360;48.764;9.164;2022-07-23T13:43:08;4.53;;;4.10;;
751;SDS011;360;48.764;9.164;2022-07-23T13:45:35;4.90;;;4.50;;
751;SDS011;360;48.764;9.164;2022-07-23T13:48:03;4.67;;;4.27;;
751;SDS011;360;48.764;9.164;2022-07-23T13:50:30;4.50;;;4.10;;
751;SDS011;360;48.764;9.164;2022-07-23T13:53:00;4.97;;;4.67;;
751;SDS011;360;48.764;9.164;2022-07-23T13:55:27;4.83;;;4.37;;
751;SDS011;360;48.764;9.164;2022-07-23T13:57:56;4.53;;;4.13;;
751;SDS011;360;48.764;9.164;2022-07-23T14:00:23;4.97;;;4.47;;
751;SDS011;360;48.764;9.164;2022-07-23T14:02:50;5.63;;;4.40;;
751;SDS011;360;48.764;9.164;2022-07-23T14:05:17;4.93;;;4.53;;
751;SDS011;360;48.764;9.164;2022-07-23T14:07:45;4.77;;;4.37;;
751;SDS011;360;48.764;9.164;2022-07-23T14:10:14;4.80;;;4.00;;
751;SDS011;360;48.764;9.164;2022-07-23T14:12:42;4.90;;;4.40;;
751;SDS011;360;48.764;9.164;2022-07-23T14:15:11;4.93;;;4.43;;
751;SDS011;360;48.764;9.164;2022-07-23T14:17:38;4.80;;;4.40;;
751;SDS011;360;48.764;9.164;2022-07-23T14:20:07;4.67;;;4.37;;
751;SDS011;360;48.764;9.164;2022-07-23T14:22:35;4.67;;;4.27;;
751;SDS011;360;48.764;9.164;2022-07-23T14:25:02;4.60;;;4.20;;
751;SDS011;360;48.764;9.164;2022-07-23T14:27:30;5.30;;;4.90;;
751;SDS011;360;48.764;9.164;2022-07-23T14:29:57;4.30;;;3.92;;
751;SDS011;360;48.764;9.164;2022-07-23T14:32:25;4.68;;;4.28;;
751;SDS011;360;48.764;9.164;2022-07-23T14:34:52;4.55;;;4.25;;
751;SDS011;360;48.764;9.164;2022-07-23T14:37:20;4.88;;;4.47;;
751;SDS011;360;48.764;9.164;2022-07-23T14:39:47;4.93;;;4.45;;
751;SDS011;360;48.764;9.164;2022-07-23T14:42:14;4.70;;;4.30;;
751;SDS011;360;48.764;9.164;2022-07-23T14:44:41;5.25;;;4.65;;
751;SDS011;360;48.764;9.164;2022-07-23T14:47:08;5.28;;;4.25;;
751;SDS011;360;48.764;9.164;2022-07-23T14:49:37;4.75;;;4.15;;
751;SDS011;360;48.764;9.164;2022-07-23T14:52:04;4.28;;;3.97;;
751;SDS011;360;48.764;9.164;2022-07-23T14:54:31;5.50;;;5.03;;
751;SDS011;360;48.764;9.164;2022-07-23T14:57:00;5.05;;;4.65;;
751;SDS011;360;48.764;9.164;2022-07-23T14:59:27;4.95;;;4.55;;
751;SDS011;360;48.764;9.164;2022-07-23T15:01:55;5.38;;;4.50;;
751;SDS011;360;48.764;9.164;2022-07-23T15:04:22;5.47;;;4.75;;
751;SDS011;360;48.764;9.164;2022-07-23T15:06:51;4.10;;;3.80;;
751;SDS011;360;48.764;9.164;2022-07-23T15:09:18;5.07;;;4.68;;
751;SDS011;360;48.764;9.164;2022-07-23T15:11:46;5.15;;;4.75;;
751;SDS011;360;48.764;9.164;2022-07-23T15:14:13;4.35;;;3.95;;
751;SDS011;360;48.764;9.164;2022-07-23T15:16:40;5.40;;;5.00;;
751;SDS011;360;48.764;9.164;2022-07-23T15:19:07;6.15;;;5.65;;
751;SDS011;360;48.764;9.164;2022-07-23T15:21:34;4.97;;;4.57;;
751;SDS011;360;48.764;9.164;2022-07-23T15:24:03;4.43;;;4.10;;
751;SDS011;360;48.764;9.164;2022-07-23T15:26:30;5.10;;;4.70;;
751;SDS011;360;48.764;9.164;2022-07-23T15:28:57;5.40;;;5.00;;
751;SDS011;360;48.764;9.164;2022-07-23T15:31:26;5.20;;;4.80;;
751;SDS011;360;48.764;9.164;2022-07-23T15:33:53;5.45;;;5.05;;
751;SDS011;360;48.764;9.164;2022-07-23T15:36:20;5.38;;;4.97;;
751;SDS011;360;48.764;9.164;2022-07-23T15:38:48;5.32;;;4.90;;
751;SDS011;360;48.764;9.164;2022-07-23T15:41:16;4.50;;;4.20;;
751;SDS011;360;48.764;9.164;2022-07-23T15:43:43;5.03;;;4.65;;
751;SDS011;360;48.764;9.164;2022-07-23T15:46:10;4.90;;;4.55;;
751;SDS011;360;48.764;9.164;2022-07-23T15:48:38;6.05;;;5.55;;
751;SDS011;360;48.764;9.164;2022-07-23T15:51:05;4.80;;;4.40;;
751;SDS011;360;48.764;9.164;2022-07-23T15:53:32;4.93;;;4.35;;
751;SDS011;360;48.764;9.164;2022-07-23T15:56:00;4.80;;;4.40;;
751;SDS011;360;48.764;9.164;2022-07-23T15:58:28;5.00;;;4.60;;
751;SDS011;360;48.764;9.164;2022-07-23T16:00:55;4.50;;;4.20;;